createdAt,value
2017-10-18T00:00:22.137Z,23.11
2017-10-18T00:01:02.583Z,23.11
2017-10-18T00:01:43.038Z,23.18
2017-10-18T00:02:23.487Z,23.1
2017-10-18T00:03:03.933Z,23.16
2017-10-18T00:03:44.387Z,23.11
2017-10-18T00:04:24.844Z,23.08
2017-10-18T00:05:05.302Z,23.18
2017-10-18T00:05:45.767Z,23.1
2017-10-18T00:06:26.223Z,23.14
2017-10-18T00:07:06.667Z,23.06
2017-10-18T00:07:47.124Z,23.13
2017-10-18T00:08:27.579Z,23.18
2017-10-18T00:09:08.040Z,23.07
2017-10-18T00:09:48.497Z,23.16
2017-10-18T00:10:28.954Z,23.1
2017-10-18T00:11:09.422Z,23.18
2017-10-18T00:11:49.871Z,23.16
2017-10-18T00:12:30.313Z,23.1
2017-10-18T00:13:10.760Z,23.11
2017-10-18T00:13:51.207Z,23.07
2017-10-18T00:14:31.658Z,23.11
2017-10-18T00:15:12.123Z,23.1
2017-10-18T00:15:52.585Z,23.07
2017-10-18T00:16:33.039Z,23.13
2017-10-18T00:17:13.485Z,23.08
2017-10-18T00:17:53.940Z,23.06
2017-10-18T00:18:34.401Z,23.13
2017-10-18T00:19:14.853Z,23.18
2017-10-18T00:19:55.315Z,23.14
2017-10-18T00:20:35.780Z,23.11
2017-10-18T00:21:16.257Z,23.13
2017-10-18T00:21:56.695Z,23.08
2017-10-18T00:22:37.156Z,23.11
2017-10-18T00:23:17.619Z,23.16
2017-10-18T00:23:58.074Z,23.04
2017-10-18T00:24:38.530Z,23.08
2017-10-18T00:25:18.982Z,23.14
2017-10-18T00:25:59.438Z,23.1
2017-10-18T00:26:39.901Z,23.11
2017-10-18T00:27:20.366Z,23.1
2017-10-18T00:28:00.825Z,23.11
2017-10-18T00:28:41.279Z,23.08
2017-10-18T00:29:21.735Z,23.1
2017-10-18T00:30:02.180Z,23.08
2017-10-18T00:30:42.634Z,23.08
2017-10-18T00:31:23.090Z,23.1
2017-10-18T00:32:03.541Z,23.04
2017-10-18T00:32:44.000Z,23.08
2017-10-18T00:33:24.456Z,23.11
2017-10-18T00:34:04.907Z,23.11
2017-10-18T00:34:45.377Z,23.08
2017-10-18T00:35:25.821Z,23.16
2017-10-18T00:36:06.284Z,23.08
2017-10-18T00:36:46.741Z,23.1
2017-10-18T00:37:27.179Z,23.11
2017-10-18T00:38:07.623Z,23.07
2017-10-18T00:38:48.087Z,23.08
2017-10-18T00:39:28.541Z,23.02
2017-10-18T00:40:08.994Z,23.08
2017-10-18T00:40:49.448Z,23.07
2017-10-18T00:41:29.910Z,23.06
2017-10-18T00:42:10.359Z,23.07
2017-10-18T00:42:50.813Z,23.07
2017-10-18T00:43:31.267Z,23.08
2017-10-18T00:44:11.723Z,23.11
2017-10-18T00:44:52.173Z,23.04
2017-10-18T00:45:32.628Z,23.13
2017-10-18T00:46:13.080Z,23.11
2017-10-18T00:46:53.526Z,23.04
2017-10-18T00:47:33.981Z,23.07
2017-10-18T00:48:14.437Z,23.08
2017-10-18T00:48:54.893Z,23.1
2017-10-18T00:49:35.366Z,23.07
2017-10-18T00:50:15.815Z,23.08
2017-10-18T00:50:56.259Z,23.1
2017-10-18T00:51:36.719Z,23.02
2017-10-18T00:52:17.191Z,23.04
2017-10-18T00:52:57.653Z,23.11
2017-10-18T00:53:38.110Z,23.02
2017-10-18T00:54:18.563Z,22.99
2017-10-18T00:54:59.023Z,23.07
2017-10-18T00:55:39.479Z,23.01
2017-10-18T00:56:19.932Z,23.04
2017-10-18T00:57:00.390Z,22.99
2017-10-18T00:57:40.846Z,22.95
2017-10-18T00:58:21.305Z,23.04
2017-10-18T00:59:01.765Z,22.96
2017-10-18T00:59:42.219Z,23.06
2017-10-18T01:00:22.679Z,23.06
2017-10-18T01:01:03.127Z,23.04
2017-10-18T01:01:43.583Z,22.95
2017-10-18T01:02:24.038Z,23.08
2017-10-18T01:03:04.496Z,23.06
2017-10-18T01:03:44.956Z,23.01
2017-10-18T01:04:25.427Z,22.98
2017-10-18T01:05:05.880Z,23.04
2017-10-18T01:05:46.338Z,22.98
2017-10-18T01:06:26.789Z,22.99
2017-10-18T01:07:07.256Z,22.99
2017-10-18T01:07:47.707Z,23.01
2017-10-18T01:08:28.163Z,23.04
2017-10-18T01:09:08.620Z,22.98
2017-10-18T01:09:49.079Z,22.99
2017-10-18T01:10:29.541Z,23.01
2017-10-18T01:11:10.001Z,22.99
2017-10-18T01:11:50.453Z,23.01
2017-10-18T01:12:30.904Z,23.04
2017-10-18T01:13:11.363Z,23.01
2017-10-18T01:13:51.825Z,23.02
2017-10-18T01:14:32.292Z,23.01
2017-10-18T01:15:12.748Z,22.96
2017-10-18T01:15:53.199Z,22.99
2017-10-18T01:16:33.655Z,22.96
2017-10-18T01:17:14.112Z,23.02
2017-10-18T01:17:54.571Z,23.06
2017-10-18T01:18:35.035Z,23.06
2017-10-18T01:19:15.491Z,23.06
2017-10-18T01:19:55.936Z,23.06
2017-10-18T01:20:36.388Z,23.02
2017-10-18T01:21:16.843Z,23.02
2017-10-18T01:21:57.289Z,23.01
2017-10-18T01:22:37.754Z,23.1
2017-10-18T01:23:18.210Z,22.98
2017-10-18T01:23:58.679Z,23.1
2017-10-18T01:24:39.139Z,23.07
2017-10-18T01:25:19.599Z,23.04
2017-10-18T01:26:00.073Z,23.06
2017-10-18T01:26:40.508Z,23.02
2017-10-18T01:27:20.959Z,22.99
2017-10-18T01:28:01.413Z,23.02
2017-10-18T01:28:41.869Z,23.02
2017-10-18T01:29:22.332Z,22.98
2017-10-18T01:30:02.790Z,22.93
2017-10-18T01:30:43.243Z,22.99
2017-10-18T01:31:23.694Z,23.04
2017-10-18T01:32:04.154Z,23.02
2017-10-18T01:32:44.606Z,23.04
2017-10-18T01:33:25.071Z,23.02
2017-10-18T01:34:05.518Z,23.02
2017-10-18T01:34:45.967Z,23.06
2017-10-18T01:35:26.415Z,23.04
2017-10-18T01:36:06.862Z,23.02
2017-10-18T01:36:47.310Z,23.04
2017-10-18T01:37:27.769Z,23.01
2017-10-18T01:38:08.232Z,22.96
2017-10-18T01:38:48.695Z,23.01
2017-10-18T01:39:29.146Z,22.99
2017-10-18T01:40:09.596Z,23.01
2017-10-18T01:40:50.046Z,23.01
2017-10-18T01:41:30.498Z,22.98
2017-10-18T01:42:10.955Z,23.04
2017-10-18T01:42:51.407Z,23.01
2017-10-18T01:43:31.858Z,23.02
2017-10-18T01:44:12.313Z,22.99
2017-10-18T01:44:52.768Z,22.95
2017-10-18T01:45:33.233Z,22.99
2017-10-18T01:46:13.678Z,22.95
2017-10-18T01:46:54.132Z,22.93
2017-10-18T01:47:34.586Z,22.96
2017-10-18T01:48:15.044Z,23.01
2017-10-18T01:48:55.494Z,22.95
2017-10-18T01:49:35.950Z,22.95
2017-10-18T01:50:16.409Z,22.92
2017-10-18T01:50:56.877Z,22.92
2017-10-18T01:51:37.334Z,22.95
2017-10-18T01:52:17.786Z,22.92
2017-10-18T01:52:58.246Z,22.93
2017-10-18T01:53:38.699Z,22.98
2017-10-18T01:54:19.147Z,22.92
2017-10-18T01:54:59.601Z,22.93
2017-10-18T01:55:40.056Z,22.98
2017-10-18T01:56:20.511Z,22.96
2017-10-18T01:57:00.968Z,22.98
2017-10-18T01:57:41.419Z,23.01
2017-10-18T01:58:21.875Z,22.92
2017-10-18T01:59:02.344Z,22.99
2017-10-18T01:59:42.780Z,22.92
2017-10-18T02:00:23.238Z,22.93
2017-10-18T02:01:03.685Z,22.93
2017-10-18T02:01:44.141Z,22.98
2017-10-18T02:02:24.610Z,22.93
2017-10-18T02:03:05.067Z,23.01
2017-10-18T02:03:45.531Z,22.93
2017-10-18T02:04:25.985Z,22.95
2017-10-18T02:05:06.435Z,22.93
2017-10-18T02:05:46.896Z,22.93
2017-10-18T02:06:27.353Z,22.96
2017-10-18T02:07:07.816Z,22.92
2017-10-18T02:07:48.268Z,22.98
2017-10-18T02:08:28.735Z,22.96
2017-10-18T02:09:09.163Z,22.92
2017-10-18T02:09:49.610Z,22.93
2017-10-18T02:10:30.072Z,22.89
2017-10-18T02:11:10.526Z,22.93
2017-10-18T02:11:50.970Z,22.98
2017-10-18T02:12:31.418Z,22.89
2017-10-18T02:13:11.879Z,22.92
2017-10-18T02:13:52.351Z,22.93
2017-10-18T02:14:32.781Z,22.95
2017-10-18T02:15:13.254Z,22.98
2017-10-18T02:15:53.707Z,22.89
2017-10-18T02:16:34.166Z,22.89
2017-10-18T02:17:14.627Z,22.98
2017-10-18T02:17:55.084Z,22.96
2017-10-18T02:18:35.542Z,22.88
2017-10-18T02:19:16.003Z,22.98
2017-10-18T02:19:56.472Z,22.92
2017-10-18T02:20:36.935Z,22.95
2017-10-18T02:21:17.387Z,22.93
2017-10-18T02:21:57.841Z,22.92
2017-10-18T02:22:38.304Z,22.89
2017-10-18T02:23:18.750Z,22.91
2017-10-18T02:23:59.210Z,22.93
2017-10-18T02:24:39.668Z,22.96
2017-10-18T02:25:20.127Z,22.98
2017-10-18T02:26:00.594Z,22.98
2017-10-18T02:26:41.043Z,22.96
2017-10-18T02:27:21.502Z,22.89
2017-10-18T02:28:01.951Z,22.96
2017-10-18T02:28:42.404Z,22.93
2017-10-18T02:29:22.861Z,22.91
2017-10-18T02:30:03.324Z,22.98
2017-10-18T02:30:43.783Z,22.96
2017-10-18T02:31:24.230Z,22.98
2017-10-18T02:32:04.690Z,22.95
2017-10-18T02:32:45.140Z,22.96
2017-10-18T02:33:25.603Z,22.89
2017-10-18T02:34:06.052Z,22.93
2017-10-18T02:34:46.510Z,22.98
2017-10-18T02:35:26.976Z,22.92
2017-10-18T02:36:07.422Z,22.92
2017-10-18T02:36:47.880Z,22.93
2017-10-18T02:37:28.341Z,22.89
2017-10-18T02:38:08.793Z,22.95
2017-10-18T02:38:49.242Z,22.93
2017-10-18T02:39:29.697Z,22.95
2017-10-18T02:40:10.151Z,22.95
2017-10-18T02:40:50.608Z,22.96
2017-10-18T02:41:31.072Z,22.88
2017-10-18T02:42:11.533Z,22.91
2017-10-18T02:42:51.986Z,22.93
2017-10-18T02:43:32.442Z,22.92
2017-10-18T02:44:12.893Z,22.96
2017-10-18T02:44:53.341Z,22.98
2017-10-18T02:45:33.800Z,22.89
2017-10-18T02:46:14.254Z,22.95
2017-10-18T02:46:54.702Z,22.88
2017-10-18T02:47:35.159Z,22.93
2017-10-18T02:48:15.617Z,22.93
2017-10-18T02:48:56.073Z,22.92
2017-10-18T02:49:36.535Z,22.89
2017-10-18T02:50:16.988Z,22.92
2017-10-18T02:50:57.439Z,22.88
2017-10-18T02:51:37.898Z,22.89
2017-10-18T02:52:18.351Z,23.01
2017-10-18T02:52:58.821Z,22.92
2017-10-18T02:53:39.282Z,22.98
2017-10-18T02:54:19.749Z,22.95
2017-10-18T02:55:00.205Z,22.93
2017-10-18T02:55:40.650Z,22.99
2017-10-18T02:56:21.091Z,22.95
2017-10-18T02:57:01.558Z,22.92
2017-10-18T02:57:42.029Z,22.96
2017-10-18T02:58:22.453Z,22.91
2017-10-18T02:59:02.891Z,22.96
2017-10-18T02:59:43.357Z,22.89
2017-10-18T03:00:23.823Z,22.91
2017-10-18T03:01:04.275Z,22.92
2017-10-18T03:01:44.757Z,22.89
2017-10-18T03:02:25.198Z,22.92
2017-10-18T03:03:05.647Z,22.81
2017-10-18T03:03:46.098Z,22.83
2017-10-18T03:04:26.570Z,22.84
2017-10-18T03:05:07.026Z,22.81
2017-10-18T03:05:47.477Z,22.89
2017-10-18T03:06:27.931Z,22.81
2017-10-18T03:07:08.395Z,22.81
2017-10-18T03:07:48.839Z,22.84
2017-10-18T03:08:29.303Z,22.83
2017-10-18T03:09:09.756Z,22.84
2017-10-18T03:09:50.213Z,22.89
2017-10-18T03:10:30.669Z,22.84
2017-10-18T03:11:11.125Z,22.84
2017-10-18T03:11:51.575Z,22.84
2017-10-18T03:12:32.037Z,22.8
2017-10-18T03:13:12.488Z,22.78
2017-10-18T03:13:52.938Z,22.8
2017-10-18T03:14:33.399Z,22.83
2017-10-18T03:15:13.867Z,22.77
2017-10-18T03:15:54.314Z,22.76
2017-10-18T03:16:34.772Z,22.8
2017-10-18T03:17:15.218Z,22.8
2017-10-18T03:17:55.678Z,22.81
2017-10-18T03:18:36.141Z,22.83
2017-10-18T03:19:16.582Z,22.8
2017-10-18T03:19:57.033Z,22.8
2017-10-18T03:20:37.486Z,22.8
2017-10-18T03:21:17.954Z,22.78
2017-10-18T03:21:58.423Z,22.81
2017-10-18T03:22:38.859Z,22.83
2017-10-18T03:23:19.319Z,22.81
2017-10-18T03:23:59.764Z,22.8
2017-10-18T03:24:40.218Z,22.81
2017-10-18T03:25:20.679Z,22.81
2017-10-18T03:26:01.122Z,22.84
2017-10-18T03:26:41.575Z,22.88
2017-10-18T03:27:22.025Z,22.81
2017-10-18T03:28:02.476Z,22.84
2017-10-18T03:28:42.935Z,22.81
2017-10-18T03:29:23.382Z,22.84
2017-10-18T03:30:03.851Z,22.84
2017-10-18T03:30:44.301Z,22.83
2017-10-18T03:31:24.757Z,22.84
2017-10-18T03:32:05.208Z,22.84
2017-10-18T03:32:45.667Z,22.83
2017-10-18T03:33:26.117Z,22.8
2017-10-18T03:34:06.581Z,22.81
2017-10-18T03:34:47.024Z,22.76
2017-10-18T03:35:27.476Z,22.83
2017-10-18T03:36:07.930Z,22.84
2017-10-18T03:36:48.391Z,22.86
2017-10-18T03:37:28.847Z,22.88
2017-10-18T03:38:09.304Z,22.88
2017-10-18T03:38:49.773Z,22.93
2017-10-18T03:39:30.230Z,22.93
2017-10-18T03:40:10.686Z,23.01
2017-10-18T03:40:51.138Z,23.02
2017-10-18T03:41:31.590Z,23.02
2017-10-18T03:42:12.044Z,23.02
2017-10-18T03:42:52.512Z,23.06
2017-10-18T03:43:32.974Z,23.08
2017-10-18T03:44:13.442Z,23.02
2017-10-18T03:44:53.898Z,22.99
2017-10-18T03:45:34.354Z,23.02
2017-10-18T03:46:14.819Z,23.01
2017-10-18T03:46:55.280Z,23.08
2017-10-18T03:47:35.744Z,23.08
2017-10-18T03:48:16.192Z,23.16
2017-10-18T03:48:56.640Z,23.13
2017-10-18T03:49:37.084Z,23.08
2017-10-18T03:50:17.546Z,23.16
2017-10-18T03:50:58.011Z,23.13
2017-10-18T03:51:38.463Z,23.16
2017-10-18T03:52:18.917Z,23.14
2017-10-18T03:52:59.372Z,23.1
2017-10-18T03:53:39.828Z,22.96
2017-10-18T03:54:20.290Z,22.98
2017-10-18T03:55:00.749Z,23.01
2017-10-18T03:55:41.209Z,22.93
2017-10-18T03:56:21.662Z,22.93
2017-10-18T03:57:02.124Z,22.93
2017-10-18T03:57:42.578Z,22.93
2017-10-18T03:58:23.030Z,22.95
2017-10-18T03:59:03.474Z,22.92
2017-10-18T03:59:43.919Z,22.88
2017-10-18T04:00:24.388Z,22.86
2017-10-18T04:01:04.814Z,22.86
2017-10-18T04:01:45.622Z,22.95
2017-10-18T04:02:26.082Z,22.88
2017-10-18T04:03:06.536Z,22.88
2017-10-18T04:03:46.997Z,22.91
2017-10-18T04:04:27.456Z,22.93
2017-10-18T04:05:07.904Z,22.92
2017-10-18T04:05:48.354Z,22.93
2017-10-18T04:06:28.822Z,22.93
2017-10-18T04:07:09.260Z,22.92
2017-10-18T04:07:49.717Z,22.98
2017-10-18T04:08:30.162Z,22.92
2017-10-18T04:09:10.629Z,22.92
2017-10-18T04:09:51.094Z,22.96
2017-10-18T04:10:31.550Z,22.91
2017-10-18T04:11:12.004Z,23.01
2017-10-18T04:11:52.462Z,22.89
2017-10-18T04:12:32.900Z,22.96
2017-10-18T04:13:13.366Z,22.89
2017-10-18T04:13:53.830Z,22.92
2017-10-18T04:14:34.300Z,22.95
2017-10-18T04:15:14.760Z,22.98
2017-10-18T04:15:55.204Z,22.96
2017-10-18T04:16:35.656Z,22.95
2017-10-18T04:17:16.109Z,22.95
2017-10-18T04:17:56.549Z,22.96
2017-10-18T04:18:37.015Z,23.04
2017-10-18T04:19:17.465Z,22.96
2017-10-18T04:19:57.921Z,22.99
2017-10-18T04:20:38.383Z,23.02
2017-10-18T04:21:18.837Z,22.98
2017-10-18T04:21:59.314Z,23.01
2017-10-18T04:22:39.757Z,22.98
2017-10-18T04:23:20.217Z,23.02
2017-10-18T04:24:00.660Z,23.04
2017-10-18T04:24:41.117Z,23.04
2017-10-18T04:25:21.572Z,23.02
2017-10-18T04:26:02.024Z,23.06
2017-10-18T04:26:42.502Z,22.98
2017-10-18T04:27:22.958Z,23.06
2017-10-18T04:28:03.406Z,23.04
2017-10-18T04:28:43.853Z,22.99
2017-10-18T04:29:24.300Z,22.96
2017-10-18T04:30:04.768Z,23.07
2017-10-18T04:30:45.231Z,22.98
2017-10-18T04:31:25.676Z,23.08
2017-10-18T04:32:06.129Z,23.06
2017-10-18T04:32:46.601Z,23.01
2017-10-18T04:33:27.055Z,22.99
2017-10-18T04:34:07.505Z,23.08
2017-10-18T04:34:47.967Z,23.02
2017-10-18T04:35:28.457Z,23.11
2017-10-18T04:36:08.906Z,23.04
2017-10-18T04:36:49.358Z,23.11
2017-10-18T04:37:29.817Z,23.13
2017-10-18T04:38:10.271Z,23.14
2017-10-18T04:38:50.728Z,23.14
2017-10-18T04:39:31.187Z,23.17
2017-10-18T04:40:11.626Z,23.2
2017-10-18T04:40:52.084Z,23.16
2017-10-18T04:41:32.533Z,23.17
2017-10-18T04:42:12.987Z,23.18
2017-10-18T04:42:53.443Z,23.14
2017-10-18T04:43:33.901Z,23.14
2017-10-18T04:44:14.369Z,23.08
2017-10-18T04:44:54.834Z,23.14
2017-10-18T04:45:35.283Z,23.21
2017-10-18T04:46:15.735Z,23.14
2017-10-18T04:46:56.201Z,23.11
2017-10-18T04:47:36.656Z,23.14
2017-10-18T04:48:17.109Z,23.17
2017-10-18T04:48:57.556Z,23.17
2017-10-18T04:49:38.019Z,23.16
2017-10-18T04:50:18.472Z,23.17
2017-10-18T04:50:58.922Z,23.18
2017-10-18T04:51:39.375Z,23.11
2017-10-18T04:52:19.829Z,23.14
2017-10-18T04:53:00.277Z,23.11
2017-10-18T04:53:40.736Z,23.1
2017-10-18T04:54:21.193Z,23.18
2017-10-18T04:55:01.659Z,23.11
2017-10-18T04:55:42.126Z,23.14
2017-10-18T04:56:22.566Z,23.13
2017-10-18T04:57:03.012Z,23.14
2017-10-18T04:57:43.460Z,23.1
2017-10-18T04:58:23.911Z,23.18
2017-10-18T04:59:04.352Z,23.14
2017-10-18T04:59:44.808Z,23.13
2017-10-18T05:00:25.256Z,23.08
2017-10-18T05:01:05.719Z,23.08
2017-10-18T05:01:46.168Z,23.07
2017-10-18T05:02:26.630Z,23.07
2017-10-18T05:03:07.085Z,23.07
2017-10-18T05:03:47.545Z,23.08
2017-10-18T05:04:28.000Z,23.04
2017-10-18T05:05:08.450Z,23.11
2017-10-18T05:05:48.900Z,23.13
2017-10-18T05:06:29.363Z,23.07
2017-10-18T05:07:09.811Z,23.08
2017-10-18T05:07:50.278Z,23.11
2017-10-18T05:08:30.734Z,23.07
2017-10-18T05:09:11.186Z,23.07
2017-10-18T05:09:51.644Z,23.06
2017-10-18T05:10:32.093Z,23.04
2017-10-18T05:11:12.535Z,22.98
2017-10-18T05:11:53.003Z,23.06
2017-10-18T05:12:33.427Z,23.08
2017-10-18T05:13:13.881Z,23.11
2017-10-18T05:13:54.332Z,23.11
2017-10-18T05:14:34.786Z,23.08
2017-10-18T05:15:15.230Z,23.1
2017-10-18T05:15:55.683Z,23.06
2017-10-18T05:16:36.152Z,23.1
2017-10-18T05:17:16.607Z,23.01
2017-10-18T05:17:57.063Z,23.04
2017-10-18T05:18:37.536Z,23.14
2017-10-18T05:19:17.972Z,23.11
2017-10-18T05:19:58.424Z,23.04
2017-10-18T05:20:38.871Z,23.07
2017-10-18T05:21:19.342Z,23.04
2017-10-18T05:21:59.776Z,22.99
2017-10-18T05:22:40.227Z,23.04
2017-10-18T05:23:20.679Z,22.99
2017-10-18T05:24:01.136Z,23.04
2017-10-18T05:24:41.598Z,23.07
2017-10-18T05:25:22.060Z,22.98
2017-10-18T05:26:02.501Z,23.06
2017-10-18T05:26:42.954Z,23.04
2017-10-18T05:27:23.399Z,23.06
2017-10-18T05:28:03.847Z,23.02
2017-10-18T05:28:44.308Z,23.01
2017-10-18T05:29:24.762Z,23.02
2017-10-18T05:30:05.212Z,22.99
2017-10-18T05:30:45.685Z,22.96
2017-10-18T05:31:26.148Z,22.99
2017-10-18T05:32:06.612Z,22.95
2017-10-18T05:32:47.054Z,22.98
2017-10-18T05:33:27.508Z,22.99
2017-10-18T05:34:07.951Z,22.93
2017-10-18T05:34:48.401Z,22.95
2017-10-18T05:35:28.851Z,22.99
2017-10-18T05:36:09.298Z,23.01
2017-10-18T05:36:49.765Z,22.95
2017-10-18T05:37:30.217Z,22.98
2017-10-18T05:38:10.673Z,22.98
2017-10-18T05:38:51.120Z,22.98
2017-10-18T05:39:31.587Z,22.98
2017-10-18T05:40:12.038Z,23.01
2017-10-18T05:40:52.504Z,22.93
2017-10-18T05:41:32.952Z,23.02
2017-10-18T05:42:13.409Z,22.96
2017-10-18T05:42:53.878Z,22.98
2017-10-18T05:43:34.329Z,23.02
2017-10-18T05:44:14.780Z,22.98
2017-10-18T05:44:55.227Z,22.96
2017-10-18T05:45:35.690Z,22.95
2017-10-18T05:46:16.132Z,22.95
2017-10-18T05:46:56.577Z,22.99
2017-10-18T05:47:37.035Z,22.95
2017-10-18T05:48:17.470Z,22.99
2017-10-18T05:48:57.932Z,22.95
2017-10-18T05:49:38.387Z,22.95
2017-10-18T05:50:18.835Z,22.95
2017-10-18T05:50:59.292Z,22.92
2017-10-18T05:51:39.761Z,22.96
2017-10-18T05:52:20.217Z,22.96
2017-10-18T05:53:00.673Z,22.95
2017-10-18T05:53:41.120Z,22.95
2017-10-18T05:54:21.574Z,22.93
2017-10-18T05:55:02.027Z,22.95
2017-10-18T05:55:42.481Z,22.95
2017-10-18T05:56:22.934Z,22.95
2017-10-18T05:57:03.393Z,22.96
2017-10-18T05:57:43.841Z,22.88
2017-10-18T05:58:24.303Z,22.96
2017-10-18T05:59:04.753Z,22.92
2017-10-18T05:59:45.214Z,22.92
2017-10-18T06:00:25.661Z,22.88
2017-10-18T06:01:06.112Z,22.95
2017-10-18T06:01:46.564Z,22.92
2017-10-18T06:02:27.017Z,22.95
2017-10-18T06:03:07.470Z,22.96
2017-10-18T06:03:47.924Z,22.93
2017-10-18T06:04:28.376Z,22.93
2017-10-18T06:05:08.839Z,22.93
2017-10-18T06:05:49.291Z,22.88
2017-10-18T06:06:29.754Z,22.93
2017-10-18T06:07:10.214Z,22.83
2017-10-18T06:07:50.662Z,22.96
2017-10-18T06:08:31.118Z,22.93
2017-10-18T06:09:11.574Z,22.92
2017-10-18T06:09:52.031Z,22.95
2017-10-18T06:10:32.475Z,22.88
2017-10-18T06:11:12.935Z,22.88
2017-10-18T06:11:53.387Z,22.91
2017-10-18T06:12:33.839Z,22.93
2017-10-18T06:13:14.295Z,22.93
2017-10-18T06:13:54.751Z,22.95
2017-10-18T06:14:35.196Z,22.93
2017-10-18T06:15:15.639Z,22.88
2017-10-18T06:15:56.110Z,22.88
2017-10-18T06:16:36.566Z,22.89
2017-10-18T06:17:17.018Z,22.88
2017-10-18T06:17:57.471Z,22.89
2017-10-18T06:18:37.925Z,22.92
2017-10-18T06:19:18.399Z,22.88
2017-10-18T06:19:58.849Z,22.92
2017-10-18T06:20:39.311Z,22.98
2017-10-18T06:21:19.760Z,22.93
2017-10-18T06:22:00.219Z,22.95
2017-10-18T06:22:40.662Z,22.89
2017-10-18T06:23:21.118Z,22.96
2017-10-18T06:24:01.575Z,22.92
2017-10-18T06:24:42.053Z,22.93
2017-10-18T06:25:22.500Z,22.98
2017-10-18T06:26:02.950Z,22.89
2017-10-18T06:26:43.398Z,22.91
2017-10-18T06:27:23.852Z,22.93
2017-10-18T06:28:04.311Z,22.99
2017-10-18T06:28:44.753Z,22.93
2017-10-18T06:29:25.222Z,22.93
2017-10-18T06:30:05.673Z,22.93
2017-10-18T06:30:46.124Z,22.92
2017-10-18T06:31:26.593Z,22.92
2017-10-18T06:32:07.048Z,22.93
2017-10-18T06:32:47.500Z,22.99
2017-10-18T06:33:27.943Z,22.95
2017-10-18T06:34:08.385Z,22.99
2017-10-18T06:34:48.840Z,22.95
2017-10-18T06:35:29.293Z,22.99
2017-10-18T06:36:09.751Z,22.98
2017-10-18T06:36:50.212Z,22.99
2017-10-18T06:37:30.671Z,22.99
2017-10-18T06:38:11.132Z,23.01
2017-10-18T06:38:51.586Z,23.01
2017-10-18T06:39:32.036Z,22.98
2017-10-18T06:40:12.479Z,22.98
2017-10-18T06:40:52.923Z,22.99
2017-10-18T06:41:33.397Z,22.98
2017-10-18T06:42:13.851Z,22.99
2017-10-18T06:42:54.310Z,23.02
2017-10-18T06:43:34.767Z,23.06
2017-10-18T06:44:15.233Z,22.98
2017-10-18T06:44:55.682Z,23.01
2017-10-18T06:45:36.125Z,23.01
2017-10-18T06:46:16.578Z,22.98
2017-10-18T06:46:57.038Z,22.98
2017-10-18T06:47:37.495Z,22.99
2017-10-18T06:48:17.953Z,23.02
2017-10-18T06:48:58.405Z,22.99
2017-10-18T06:49:38.859Z,22.98
2017-10-18T06:50:19.305Z,23.14
2017-10-18T06:50:59.759Z,23.06
2017-10-18T06:51:40.203Z,23.11
2017-10-18T06:52:20.675Z,23.1
2017-10-18T06:53:01.116Z,23.11
2017-10-18T06:53:41.553Z,23.08
2017-10-18T06:54:21.999Z,23.1
2017-10-18T06:55:02.475Z,23.06
2017-10-18T06:55:42.935Z,23.07
2017-10-18T06:56:23.408Z,23.17
2017-10-18T06:57:03.865Z,23.14
2017-10-18T06:57:44.312Z,23.17
2017-10-18T06:58:24.766Z,23.17
2017-10-18T06:59:05.213Z,23.08
2017-10-18T06:59:45.674Z,23.11
2017-10-18T07:00:26.122Z,23.1
2017-10-18T07:01:06.574Z,23.16
2017-10-18T07:01:47.032Z,23.17
2017-10-18T07:02:27.490Z,23.18
2017-10-18T07:03:07.949Z,23.28
2017-10-18T07:03:48.418Z,23.28
2017-10-18T07:04:28.879Z,23.29
2017-10-18T07:05:09.334Z,23.28
2017-10-18T07:05:49.791Z,23.21
2017-10-18T07:06:30.241Z,23.33
2017-10-18T07:07:10.700Z,23.39
2017-10-18T07:07:51.153Z,23.33
2017-10-18T07:08:31.605Z,23.37
2017-10-18T07:09:12.063Z,23.36
2017-10-18T07:09:52.518Z,23.42
2017-10-18T07:10:32.962Z,23.4
2017-10-18T07:11:13.429Z,23.48
2017-10-18T07:11:53.867Z,23.51
2017-10-18T07:12:34.326Z,23.56
2017-10-18T07:13:14.781Z,23.62
2017-10-18T07:13:55.234Z,23.66
2017-10-18T07:14:35.689Z,23.79
2017-10-18T07:15:16.149Z,23.71
2017-10-18T07:15:56.619Z,23.69
2017-10-18T07:16:37.075Z,23.81
2017-10-18T07:17:17.531Z,23.76
2017-10-18T07:17:57.991Z,23.84
2017-10-18T07:18:38.446Z,23.89
2017-10-18T07:19:18.905Z,23.88
2017-10-18T07:19:59.378Z,23.99
2017-10-18T07:20:39.825Z,23.91
2017-10-18T07:21:20.287Z,23.95
2017-10-18T07:22:00.742Z,23.99
2017-10-18T07:22:41.190Z,23.92
2017-10-18T07:23:21.658Z,24.07
2017-10-18T07:24:02.082Z,24.01
2017-10-18T07:24:42.527Z,24.03
2017-10-18T07:25:22.984Z,24.04
2017-10-18T07:26:03.491Z,24.11
2017-10-18T07:26:43.942Z,24.19
2017-10-18T07:27:24.389Z,24.21
2017-10-18T07:28:04.824Z,24.21
2017-10-18T07:28:45.291Z,24.25
2017-10-18T07:29:25.733Z,24.25
2017-10-18T07:30:06.189Z,24.32
2017-10-18T07:30:46.651Z,24.29
2017-10-18T07:31:27.103Z,24.38
2017-10-18T07:32:07.555Z,24.4
2017-10-18T07:32:48.011Z,24.34
2017-10-18T07:33:28.460Z,24.38
2017-10-18T07:34:08.908Z,24.4
2017-10-18T07:34:49.366Z,24.32
2017-10-18T07:35:30.265Z,24.36
2017-10-18T07:36:10.726Z,24.29
2017-10-18T07:36:51.190Z,24.34
2017-10-18T07:37:31.647Z,24.37
2017-10-18T07:38:12.087Z,24.41
2017-10-18T07:38:52.553Z,24.41
2017-10-18T07:39:33.000Z,24.44
2017-10-18T07:40:13.463Z,24.41
2017-10-18T07:40:53.926Z,24.43
2017-10-18T07:41:34.377Z,24.43
2017-10-18T07:42:14.833Z,24.44
2017-10-18T07:42:55.276Z,24.47
2017-10-18T07:43:35.718Z,24.44
2017-10-18T07:44:16.218Z,24.46
2017-10-18T07:44:56.669Z,24.59
2017-10-18T07:45:37.119Z,24.47
2017-10-18T07:46:17.582Z,24.66
2017-10-18T07:46:58.042Z,24.63
2017-10-18T07:47:38.497Z,24.56
2017-10-18T07:48:18.954Z,24.62
2017-10-18T07:48:59.403Z,24.66
2017-10-18T07:49:39.859Z,24.56
2017-10-18T07:50:20.330Z,24.61
2017-10-18T07:51:00.786Z,24.63
2017-10-18T07:51:41.241Z,24.65
2017-10-18T07:52:21.705Z,24.61
2017-10-18T07:53:02.157Z,24.62
2017-10-18T07:53:42.613Z,24.66
2017-10-18T07:54:23.066Z,24.69
2017-10-18T07:55:03.529Z,24.71
2017-10-18T07:55:43.999Z,24.79
2017-10-18T07:56:24.452Z,24.84
2017-10-18T07:57:04.915Z,24.84
2017-10-18T07:57:45.366Z,24.84
2017-10-18T07:58:25.820Z,24.97
2017-10-18T07:59:06.257Z,24.93
2017-10-18T07:59:46.702Z,25.04
2017-10-18T08:00:27.149Z,25.01
2017-10-18T08:01:07.600Z,25.07
2017-10-18T08:01:48.047Z,25.03
2017-10-18T08:02:28.497Z,25.11
2017-10-18T08:03:08.956Z,25.16
2017-10-18T08:03:49.413Z,25.21
2017-10-18T08:04:29.868Z,25.21
2017-10-18T08:05:10.325Z,25.18
2017-10-18T08:05:50.794Z,25.18
2017-10-18T08:06:31.260Z,25.22
2017-10-18T08:07:11.707Z,25.24
2017-10-18T08:07:52.263Z,25.19
2017-10-18T08:08:32.665Z,25.19
2017-10-18T08:09:13.124Z,25.16
2017-10-18T08:09:53.568Z,25.21
2017-10-18T08:10:34.035Z,25.16
2017-10-18T08:11:14.492Z,25.25
2017-10-18T08:11:54.973Z,25.21
2017-10-18T08:12:35.435Z,25.19
2017-10-18T08:13:15.883Z,25.3
2017-10-18T08:13:56.337Z,25.29
2017-10-18T08:14:36.820Z,25.21
2017-10-18T08:15:17.282Z,25.26
2017-10-18T08:15:57.760Z,25.25
2017-10-18T08:16:38.228Z,25.31
2017-10-18T08:17:18.668Z,25.31
2017-10-18T08:17:59.138Z,25.37
2017-10-18T08:18:39.604Z,25.44
2017-10-18T08:19:20.066Z,25.39
2017-10-18T08:20:00.526Z,25.37
2017-10-18T08:20:40.972Z,25.48
2017-10-18T08:21:21.428Z,25.46
2017-10-18T08:22:01.878Z,25.52
2017-10-18T08:22:42.331Z,25.61
2017-10-18T08:23:22.805Z,25.56
2017-10-18T08:24:03.259Z,25.63
2017-10-18T08:24:43.717Z,25.62
2017-10-18T08:25:24.178Z,25.63
2017-10-18T08:26:04.631Z,25.67
2017-10-18T08:26:45.073Z,25.76
2017-10-18T08:27:25.524Z,25.76
2017-10-18T08:28:05.986Z,25.85
2017-10-18T08:28:46.451Z,25.88
2017-10-18T08:29:26.910Z,25.85
2017-10-18T08:30:07.368Z,25.91
2017-10-18T08:30:47.838Z,25.92
2017-10-18T08:31:28.296Z,25.96
2017-10-18T08:32:08.752Z,25.98
2017-10-18T08:32:49.209Z,26.01
2017-10-18T08:33:29.662Z,25.96
2017-10-18T08:34:10.122Z,25.96
2017-10-18T08:34:50.574Z,26.08
2017-10-18T08:35:31.026Z,25.99
2017-10-18T08:36:11.471Z,26.08
2017-10-18T08:36:51.931Z,25.99
2017-10-18T08:37:32.378Z,25.98
2017-10-18T08:38:12.836Z,25.98
2017-10-18T08:38:53.497Z,26.07
2017-10-18T08:39:33.945Z,26.01
2017-10-18T08:40:14.408Z,26.13
2017-10-18T08:40:54.976Z,25.98
2017-10-18T08:41:35.566Z,26.07